sensor_id;sensor_type;location;lat;lon;timestamp;P1;durP1;ratioP1;P2;durP2;ratioP2
41289;SDS011;36117;46.680;11.154;2022-11-21T00:03:17;1.30;;;0.93;;
41289;SDS011;36117;46.680;11.154;2022-11-21T00:05:44;4.78;;;1.67;;
41289;SDS011;36117;46.680;11.154;2022-11-21T00:08:13;0.30;;;0.30;;
41289;SDS011;36117;46.680;11.154;2022-11-21T00:10:41;0.98;;;0.85;;
41289;SDS011;36117;46.680;11.154;2022-11-21T00:13:11;1.80;;;0.77;;
41289;SDS011;36117;46.680;11.154;2022-11-21T00:15:41;0.65;;;0.60;;
41289;SDS011;36117;46.680;11.154;2022-11-21T00:18:07;0.22;;;0.22;;
41289;SDS011;36117;46.680;11.154;2022-11-21T00:20:35;0.73;;;0.73;;
41289;SDS011;36117;46.680;11.154;2022-11-21T00:23:01;0.57;;;0.57;;
41289;SDS011;36117;46.680;11.154;2022-11-21T00:25:27;0.60;;;0.60;;
41289;SDS011;36117;46.680;11.154;2022-11-21T00:27:53;0.32;;;0.32;;
41289;SDS011;36117;46.680;11.154;2022-11-21T00:30:19;4.72;;;0.95;;
41289;SDS011;36117;46.680;11.154;2022-11-21T00:32:44;0.65;;;0.60;;
41289;SDS011;36117;46.680;11.154;2022-11-21T00:35:10;2.20;;;1.50;;
41289;SDS011;36117;46.680;11.154;2022-11-21T00:37:36;0.90;;;0.68;;
41289;SDS011;36117;46.680;11.154;2022-11-21T00:40:02;1.65;;;0.90;;
41289;SDS011;36117;46.680;11.154;2022-11-21T00:42:28;0.50;;;0.45;;
41289;SDS011;36117;46.680;11.154;2022-11-21T00:44:53;0.68;;;0.68;;
41289;SDS011;36117;46.680;11.154;2022-11-21T00:47:19;1.52;;;0.80;;
41289;SDS011;36117;46.680;11.154;2022-11-21T00:49:45;1.10;;;0.82;;
41289;SDS011;36117;46.680;11.154;2022-11-21T00:52:10;0.80;;;0.80;;
41289;SDS011;36117;46.680;11.154;2022-11-21T00:54:36;1.00;;;0.70;;
41289;SDS011;36117;46.680;11.154;2022-11-21T00:57:02;3.45;;;2.08;;
41289;SDS011;36117;46.680;11.154;2022-11-21T00:59:27;1.30;;;1.23;;
41289;SDS011;36117;46.680;11.154;2022-11-21T01:01:53;0.90;;;0.75;;
41289;SDS011;36117;46.680;11.154;2022-11-21T01:04:19;2.45;;;1.40;;
41289;SDS011;36117;46.680;11.154;2022-11-21T01:06:45;1.38;;;0.77;;
41289;SDS011;36117;46.680;11.154;2022-11-21T01:09:11;2.80;;;1.27;;
41289;SDS011;36117;46.680;11.154;2022-11-21T01:11:37;1.00;;;1.00;;
41289;SDS011;36117;46.680;11.154;2022-11-21T01:14:03;2.47;;;1.27;;
41289;SDS011;36117;46.680;11.154;2022-11-21T01:16:29;0.50;;;0.50;;
41289;SDS011;36117;46.680;11.154;2022-11-21T01:18:55;0.60;;;0.60;;
41289;SDS011;36117;46.680;11.154;2022-11-21T01:21:28;0.85;;;0.60;;
41289;SDS011;36117;46.680;11.154;2022-11-21T01:23:57;1.55;;;0.90;;
41289;SDS011;36117;46.680;11.154;2022-11-21T01:26:24;1.65;;;0.63;;
41289;SDS011;36117;46.680;11.154;2022-11-21T01:28:51;0.88;;;0.88;;
41289;SDS011;36117;46.680;11.154;2022-11-21T01:31:18;0.32;;;0.32;;
41289;SDS011;36117;46.680;11.154;2022-11-21T01:33:45;2.50;;;0.60;;
41289;SDS011;36117;46.680;11.154;2022-11-21T01:36:15;0.70;;;0.70;;
41289;SDS011;36117;46.680;11.154;2022-11-21T01:38:43;0.35;;;0.35;;
41289;SDS011;36117;46.680;11.154;2022-11-21T01:41:11;4.20;;;1.05;;
41289;SDS011;36117;46.680;11.154;2022-11-21T01:43:39;0.20;;;0.20;;
41289;SDS011;36117;46.680;11.154;2022-11-21T01:51:37;0.43;;;0.43;;
41289;SDS011;36117;46.680;11.154;2022-11-21T01:56:52;0.75;;;0.70;;
41289;SDS011;36117;46.680;11.154;2022-11-21T01:59:32;0.57;;;0.57;;
41289;SDS011;36117;46.680;11.154;2022-11-21T02:02:02;3.35;;;0.50;;
41289;SDS011;36117;46.680;11.154;2022-11-21T02:04:31;4.30;;;1.02;;
41289;SDS011;36117;46.680;11.154;2022-11-21T02:06:58;1.58;;;1.20;;
41289;SDS011;36117;46.680;11.154;2022-11-21T02:09:27;0.80;;;0.80;;
41289;SDS011;36117;46.680;11.154;2022-11-21T02:12:04;1.23;;;1.08;;
41289;SDS011;36117;46.680;11.154;2022-11-21T02:14:34;1.15;;;0.57;;
41289;SDS011;36117;46.680;11.154;2022-11-21T02:17:03;1.25;;;0.73;;
41289;SDS011;36117;46.680;11.154;2022-11-21T02:22:37;0.30;;;0.30;;
41289;SDS011;36117;46.680;11.154;2022-11-21T02:25:07;0.57;;;0.57;;
41289;SDS011;36117;46.680;11.154;2022-11-21T02:27:38;2.40;;;1.10;;
41289;SDS011;36117;46.680;11.154;2022-11-21T02:30:04;1.58;;;1.48;;
41289;SDS011;36117;46.680;11.154;2022-11-21T02:32:37;1.33;;;0.98;;
41289;SDS011;36117;46.680;11.154;2022-11-21T02:35:05;0.43;;;0.43;;
41289;SDS011;36117;46.680;11.154;2022-11-21T02:37:32;1.02;;;0.95;;
41289;SDS011;36117;46.680;11.154;2022-11-21T02:40:02;0.57;;;0.38;;
41289;SDS011;36117;46.680;11.154;2022-11-21T02:42:37;1.20;;;0.75;;
41289;SDS011;36117;46.680;11.154;2022-11-21T02:45:19;0.30;;;0.30;;
41289;SDS011;36117;46.680;11.154;2022-11-21T02:47:50;0.20;;;0.20;;
41289;SDS011;36117;46.680;11.154;2022-11-21T02:50:24;0.98;;;0.50;;
41289;SDS011;36117;46.680;11.154;2022-11-21T02:52:53;0.20;;;0.20;;
41289;SDS011;36117;46.680;11.154;2022-11-21T02:55:22;0.65;;;0.57;;
41289;SDS011;36117;46.680;11.154;2022-11-21T02:57:49;0.38;;;0.38;;
41289;SDS011;36117;46.680;11.154;2022-11-21T03:00:15;3.42;;;1.15;;
41289;SDS011;36117;46.680;11.154;2022-11-21T03:02:41;1.80;;;0.73;;
41289;SDS011;36117;46.680;11.154;2022-11-21T03:05:08;0.30;;;0.30;;
41289;SDS011;36117;46.680;11.154;2022-11-21T03:07:35;0.30;;;0.30;;
41289;SDS011;36117;46.680;11.154;2022-11-21T03:10:02;5.68;;;0.77;;
41289;SDS011;36117;46.680;11.154;2022-11-21T03:12:28;0.43;;;0.43;;
41289;SDS011;36117;46.680;11.154;2022-11-21T03:14:54;0.70;;;0.70;;
41289;SDS011;36117;46.680;11.154;2022-11-21T03:17:19;0.30;;;0.30;;
41289;SDS011;36117;46.680;11.154;2022-11-21T03:19:45;0.73;;;0.73;;
41289;SDS011;36117;46.680;11.154;2022-11-21T03:22:11;0.45;;;0.45;;
41289;SDS011;36117;46.680;11.154;2022-11-21T03:24:38;0.65;;;0.65;;
41289;SDS011;36117;46.680;11.154;2022-11-21T03:27:03;0.82;;;0.80;;
41289;SDS011;36117;46.680;11.154;2022-11-21T03:29:29;0.52;;;0.52;;
41289;SDS011;36117;46.680;11.154;2022-11-21T03:31:55;0.30;;;0.30;;
41289;SDS011;36117;46.680;11.154;2022-11-21T03:34:21;0.20;;;0.20;;
41289;SDS011;36117;46.680;11.154;2022-11-21T03:36:47;2.95;;;0.90;;
41289;SDS011;36117;46.680;11.154;2022-11-21T03:39:12;0.43;;;0.40;;
41289;SDS011;36117;46.680;11.154;2022-11-21T03:41:38;2.28;;;0.93;;
41289;SDS011;36117;46.680;11.154;2022-11-21T03:44:05;1.10;;;0.50;;
41289;SDS011;36117;46.680;11.154;2022-11-21T03:46:33;0.30;;;0.30;;
41289;SDS011;36117;46.680;11.154;2022-11-21T03:49:00;1.60;;;0.98;;
41289;SDS011;36117;46.680;11.154;2022-11-21T03:51:26;0.57;;;0.57;;
41289;SDS011;36117;46.680;11.154;2022-11-21T03:53:52;1.67;;;0.77;;
41289;SDS011;36117;46.680;11.154;2022-11-21T03:56:18;3.08;;;0.93;;
41289;SDS011;36117;46.680;11.154;2022-11-21T03:58:44;0.40;;;0.40;;
41289;SDS011;36117;46.680;11.154;2022-11-21T04:01:10;0.30;;;0.30;;
41289;SDS011;36117;46.680;11.154;2022-11-21T04:03:39;1.58;;;1.33;;
41289;SDS011;36117;46.680;11.154;2022-11-21T04:06:06;0.30;;;0.30;;
41289;SDS011;36117;46.680;11.154;2022-11-21T04:08:33;0.57;;;0.50;;
41289;SDS011;36117;46.680;11.154;2022-11-21T04:10:58;1.15;;;0.90;;
41289;SDS011;36117;46.680;11.154;2022-11-21T04:13:24;2.72;;;0.95;;
41289;SDS011;36117;46.680;11.154;2022-11-21T04:15:50;1.23;;;0.85;;
41289;SDS011;36117;46.680;11.154;2022-11-21T04:18:15;0.52;;;0.52;;
41289;SDS011;36117;46.680;11.154;2022-11-21T04:20:41;1.98;;;1.05;;
41289;SDS011;36117;46.680;11.154;2022-11-21T04:23:07;2.40;;;1.25;;
41289;SDS011;36117;46.680;11.154;2022-11-21T04:25:33;1.60;;;0.68;;
41289;SDS011;36117;46.680;11.154;2022-11-21T04:27:59;1.30;;;0.68;;
41289;SDS011;36117;46.680;11.154;2022-11-21T04:30:27;0.85;;;0.85;;
41289;SDS011;36117;46.680;11.154;2022-11-21T04:32:53;0.20;;;0.20;;
41289;SDS011;36117;46.680;11.154;2022-11-21T04:35:20;2.38;;;1.33;;
41289;SDS011;36117;46.680;11.154;2022-11-21T04:37:47;1.33;;;1.05;;
41289;SDS011;36117;46.680;11.154;2022-11-21T04:40:13;0.68;;;0.52;;
41289;SDS011;36117;46.680;11.154;2022-11-21T04:42:42;0.30;;;0.30;;
41289;SDS011;36117;46.680;11.154;2022-11-21T04:45:09;0.25;;;0.25;;
41289;SDS011;36117;46.680;11.154;2022-11-21T04:47:39;0.52;;;0.52;;
41289;SDS011;36117;46.680;11.154;2022-11-21T04:50:07;2.65;;;1.73;;
41289;SDS011;36117;46.680;11.154;2022-11-21T04:52:34;0.32;;;0.32;;
41289;SDS011;36117;46.680;11.154;2022-11-21T04:55:00;1.85;;;0.50;;
41289;SDS011;36117;46.680;11.154;2022-11-21T04:57:27;0.57;;;0.57;;
41289;SDS011;36117;46.680;11.154;2022-11-21T04:59:53;0.40;;;0.40;;
41289;SDS011;36117;46.680;11.154;2022-11-21T05:02:19;1.13;;;1.05;;
41289;SDS011;36117;46.680;11.154;2022-11-21T05:04:45;0.70;;;0.70;;
41289;SDS011;36117;46.680;11.154;2022-11-21T05:07:10;1.00;;;0.95;;
41289;SDS011;36117;46.680;11.154;2022-11-21T05:09:36;0.45;;;0.45;;
41289;SDS011;36117;46.680;11.154;2022-11-21T05:12:02;0.40;;;0.40;;
41289;SDS011;36117;46.680;11.154;2022-11-21T05:14:46;1.35;;;0.63;;
41289;SDS011;36117;46.680;11.154;2022-11-21T05:17:12;0.50;;;0.50;;
41289;SDS011;36117;46.680;11.154;2022-11-21T05:19:37;1.30;;;1.20;;
41289;SDS011;36117;46.680;11.154;2022-11-21T05:22:03;0.40;;;0.40;;
41289;SDS011;36117;46.680;11.154;2022-11-21T05:24:29;0.55;;;0.50;;
41289;SDS011;36117;46.680;11.154;2022-11-21T05:26:54;0.65;;;0.65;;
41289;SDS011;36117;46.680;11.154;2022-11-21T05:29:20;1.67;;;0.40;;
41289;SDS011;36117;46.680;11.154;2022-11-21T05:31:45;1.88;;;0.60;;
41289;SDS011;36117;46.680;11.154;2022-11-21T05:34:11;1.40;;;1.30;;
41289;SDS011;36117;46.680;11.154;2022-11-21T05:36:37;2.00;;;1.08;;
41289;SDS011;36117;46.680;11.154;2022-11-21T05:39:03;1.48;;;0.93;;
41289;SDS011;36117;46.680;11.154;2022-11-21T05:41:28;1.15;;;0.80;;
41289;SDS011;36117;46.680;11.154;2022-11-21T05:43:54;0.43;;;0.43;;
41289;SDS011;36117;46.680;11.154;2022-11-21T05:46:21;0.60;;;0.60;;
41289;SDS011;36117;46.680;11.154;2022-11-21T05:48:48;0.35;;;0.35;;
41289;SDS011;36117;46.680;11.154;2022-11-21T05:51:15;1.08;;;0.85;;
41289;SDS011;36117;46.680;11.154;2022-11-21T05:53:42;4.03;;;1.08;;
41289;SDS011;36117;46.680;11.154;2022-11-21T05:56:09;1.00;;;0.90;;
41289;SDS011;36117;46.680;11.154;2022-11-21T05:58:44;2.30;;;1.73;;
41289;SDS011;36117;46.680;11.154;2022-11-21T06:01:10;0.75;;;0.55;;
41289;SDS011;36117;46.680;11.154;2022-11-21T06:03:38;3.72;;;1.58;;
41289;SDS011;36117;46.680;11.154;2022-11-21T06:06:13;2.00;;;1.35;;
41289;SDS011;36117;46.680;11.154;2022-11-21T06:08:40;1.02;;;1.02;;
41289;SDS011;36117;46.680;11.154;2022-11-21T06:11:08;2.35;;;1.05;;
41289;SDS011;36117;46.680;11.154;2022-11-21T06:13:35;0.60;;;0.60;;
41289;SDS011;36117;46.680;11.154;2022-11-21T06:18:56;0.60;;;0.60;;
41289;SDS011;36117;46.680;11.154;2022-11-21T06:21:23;0.50;;;0.50;;
41289;SDS011;36117;46.680;11.154;2022-11-21T06:23:51;1.15;;;1.05;;
41289;SDS011;36117;46.680;11.154;2022-11-21T06:26:19;2.00;;;1.70;;
41289;SDS011;36117;46.680;11.154;2022-11-21T06:28:46;1.23;;;0.75;;
41289;SDS011;36117;46.680;11.154;2022-11-21T06:31:13;1.88;;;1.20;;
41289;SDS011;36117;46.680;11.154;2022-11-21T06:33:41;1.10;;;1.05;;
41289;SDS011;36117;46.680;11.154;2022-11-21T06:36:08;1.35;;;0.80;;
41289;SDS011;36117;46.680;11.154;2022-11-21T06:38:35;0.45;;;0.45;;
41289;SDS011;36117;46.680;11.154;2022-11-21T06:41:05;2.03;;;1.45;;
41289;SDS011;36117;46.680;11.154;2022-11-21T06:43:39;0.98;;;0.95;;
41289;SDS011;36117;46.680;11.154;2022-11-21T06:46:05;0.40;;;0.40;;
41289;SDS011;36117;46.680;11.154;2022-11-21T06:48:32;0.63;;;0.57;;
41289;SDS011;36117;46.680;11.154;2022-11-21T06:51:06;1.20;;;0.77;;
41289;SDS011;36117;46.680;11.154;2022-11-21T06:53:42;4.88;;;1.67;;
41289;SDS011;36117;46.680;11.154;2022-11-21T06:56:08;2.85;;;1.23;;
41289;SDS011;36117;46.680;11.154;2022-11-21T06:58:34;1.05;;;0.77;;
41289;SDS011;36117;46.680;11.154;2022-11-21T07:01:07;0.50;;;0.50;;
41289;SDS011;36117;46.680;11.154;2022-11-21T07:03:34;1.38;;;1.00;;
41289;SDS011;36117;46.680;11.154;2022-11-21T07:06:01;1.20;;;0.80;;
41289;SDS011;36117;46.680;11.154;2022-11-21T07:08:27;2.88;;;1.48;;
41289;SDS011;36117;46.680;11.154;2022-11-21T07:10:54;2.58;;;1.48;;
41289;SDS011;36117;46.680;11.154;2022-11-21T07:13:20;12.82;;;1.17;;
41289;SDS011;36117;46.680;11.154;2022-11-21T07:15:47;0.70;;;0.70;;
41289;SDS011;36117;46.680;11.154;2022-11-21T07:18:14;2.53;;;1.20;;
41289;SDS011;36117;46.680;11.154;2022-11-21T07:20:40;12.25;;;1.95;;
41289;SDS011;36117;46.680;11.154;2022-11-21T07:23:06;0.73;;;0.73;;
41289;SDS011;36117;46.680;11.154;2022-11-21T07:25:32;6.07;;;1.45;;
41289;SDS011;36117;46.680;11.154;2022-11-21T07:27:59;2.17;;;1.65;;
41289;SDS011;36117;46.680;11.154;2022-11-21T07:30:25;6.10;;;1.77;;
41289;SDS011;36117;46.680;11.154;2022-11-21T07:32:55;3.53;;;1.70;;
41289;SDS011;36117;46.680;11.154;2022-11-21T07:35:21;2.33;;;1.35;;
41289;SDS011;36117;46.680;11.154;2022-11-21T07:37:47;3.88;;;1.65;;
41289;SDS011;36117;46.680;11.154;2022-11-21T07:40:12;3.30;;;1.90;;
41289;SDS011;36117;46.680;11.154;2022-11-21T07:42:38;4.90;;;2.47;;
41289;SDS011;36117;46.680;11.154;2022-11-21T07:45:04;2.42;;;1.55;;
41289;SDS011;36117;46.680;11.154;2022-11-21T07:47:30;2.75;;;1.92;;
41289;SDS011;36117;46.680;11.154;2022-11-21T07:49:55;3.83;;;1.58;;
41289;SDS011;36117;46.680;11.154;2022-11-21T07:52:21;6.60;;;2.03;;
41289;SDS011;36117;46.680;11.154;2022-11-21T07:54:47;1.58;;;1.40;;
41289;SDS011;36117;46.680;11.154;2022-11-21T07:57:13;3.03;;;1.85;;
41289;SDS011;36117;46.680;11.154;2022-11-21T07:59:38;2.28;;;1.17;;
41289;SDS011;36117;46.680;11.154;2022-11-21T08:02:04;9.68;;;3.50;;
41289;SDS011;36117;46.680;11.154;2022-11-21T08:04:30;6.53;;;2.22;;
41289;SDS011;36117;46.680;11.154;2022-11-21T08:06:56;3.03;;;1.45;;
41289;SDS011;36117;46.680;11.154;2022-11-21T08:09:21;2.22;;;1.33;;
41289;SDS011;36117;46.680;11.154;2022-11-21T08:11:51;4.45;;;1.73;;
41289;SDS011;36117;46.680;11.154;2022-11-21T08:14:17;2.72;;;1.45;;
41289;SDS011;36117;46.680;11.154;2022-11-21T08:16:43;2.65;;;1.58;;
41289;SDS011;36117;46.680;11.154;2022-11-21T08:19:08;4.28;;;2.10;;
41289;SDS011;36117;46.680;11.154;2022-11-21T08:21:34;2.42;;;1.67;;
41289;SDS011;36117;46.680;11.154;2022-11-21T08:24:00;2.15;;;1.67;;
41289;SDS011;36117;46.680;11.154;2022-11-21T08:26:25;2.08;;;1.35;;
41289;SDS011;36117;46.680;11.154;2022-11-21T08:28:51;3.20;;;1.75;;
41289;SDS011;36117;46.680;11.154;2022-11-21T08:31:17;3.47;;;2.20;;
41289;SDS011;36117;46.680;11.154;2022-11-21T08:33:42;1.88;;;1.20;;
41289;SDS011;36117;46.680;11.154;2022-11-21T08:36:08;2.90;;;1.65;;
41289;SDS011;36117;46.680;11.154;2022-11-21T08:38:34;2.88;;;1.55;;
41289;SDS011;36117;46.680;11.154;2022-11-21T08:41:00;2.63;;;1.42;;
41289;SDS011;36117;46.680;11.154;2022-11-21T08:43:44;4.18;;;1.63;;
41289;SDS011;36117;46.680;11.154;2022-11-21T08:46:10;2.35;;;1.40;;
41289;SDS011;36117;46.680;11.154;2022-11-21T08:48:35;1.90;;;1.40;;
41289;SDS011;36117;46.680;11.154;2022-11-21T08:51:01;4.82;;;2.08;;
41289;SDS011;36117;46.680;11.154;2022-11-21T08:53:27;1.85;;;1.20;;
41289;SDS011;36117;46.680;11.154;2022-11-21T08:55:52;1.48;;;1.20;;
41289;SDS011;36117;46.680;11.154;2022-11-21T08:58:18;2.28;;;1.08;;
41289;SDS011;36117;46.680;11.154;2022-11-21T09:00:44;3.58;;;0.90;;
41289;SDS011;36117;46.680;11.154;2022-11-21T09:03:12;4.18;;;1.40;;
41289;SDS011;36117;46.680;11.154;2022-11-21T09:05:38;1.73;;;1.23;;
41289;SDS011;36117;46.680;11.154;2022-11-21T09:08:04;4.57;;;1.25;;
41289;SDS011;36117;46.680;11.154;2022-11-21T09:10:30;1.98;;;1.23;;
41289;SDS011;36117;46.680;11.154;2022-11-21T09:12:58;1.88;;;1.27;;
41289;SDS011;36117;46.680;11.154;2022-11-21T09:15:24;1.30;;;1.13;;
41289;SDS011;36117;46.680;11.154;2022-11-21T09:18:09;2.60;;;1.20;;
41289;SDS011;36117;46.680;11.154;2022-11-21T09:20:39;2.20;;;1.45;;
41289;SDS011;36117;46.680;11.154;2022-11-21T09:23:06;4.40;;;1.17;;
41289;SDS011;36117;46.680;11.154;2022-11-21T09:25:34;3.55;;;1.38;;
41289;SDS011;36117;46.680;11.154;2022-11-21T09:28:03;1.98;;;1.02;;
41289;SDS011;36117;46.680;11.154;2022-11-21T09:30:30;3.10;;;1.27;;
41289;SDS011;36117;46.680;11.154;2022-11-21T09:32:59;3.15;;;0.82;;
41289;SDS011;36117;46.680;11.154;2022-11-21T09:35:26;1.38;;;0.70;;
41289;SDS011;36117;46.680;11.154;2022-11-21T09:37:51;1.33;;;1.00;;
41289;SDS011;36117;46.680;11.154;2022-11-21T09:40:17;7.38;;;1.45;;
41289;SDS011;36117;46.680;11.154;2022-11-21T09:45:22;2.47;;;0.90;;
41289;SDS011;36117;46.680;11.154;2022-11-21T09:47:55;3.42;;;1.45;;
41289;SDS011;36117;46.680;11.154;2022-11-21T09:50:28;2.13;;;1.02;;
41289;SDS011;36117;46.680;11.154;2022-11-21T09:53:05;2.10;;;1.38;;
41289;SDS011;36117;46.680;11.154;2022-11-21T09:55:47;2.05;;;1.33;;
41289;SDS011;36117;46.680;11.154;2022-11-21T10:00:54;0.70;;;0.45;;
41289;SDS011;36117;46.680;11.154;2022-11-21T10:03:25;1.00;;;0.65;;
41289;SDS011;36117;46.680;11.154;2022-11-21T10:05:55;2.30;;;0.97;;
41289;SDS011;36117;46.680;11.154;2022-11-21T10:08:27;2.55;;;1.17;;
41289;SDS011;36117;46.680;11.154;2022-11-21T10:11:36;2.50;;;1.13;;
41289;SDS011;36117;46.680;11.154;2022-11-21T10:19:57;1.40;;;0.93;;
41289;SDS011;36117;46.680;11.154;2022-11-21T10:22:37;0.90;;;0.60;;
41289;SDS011;36117;46.680;11.154;2022-11-21T10:25:32;0.88;;;0.80;;
41289;SDS011;36117;46.680;11.154;2022-11-21T10:28:10;2.72;;;1.17;;
41289;SDS011;36117;46.680;11.154;2022-11-21T10:30:41;1.45;;;0.90;;
41289;SDS011;36117;46.680;11.154;2022-11-21T10:33:42;1.02;;;0.60;;
41289;SDS011;36117;46.680;11.154;2022-11-21T10:38:57;0.43;;;0.40;;
41289;SDS011;36117;46.680;11.154;2022-11-21T10:44:08;1.33;;;0.88;;
41289;SDS011;36117;46.680;11.154;2022-11-21T10:47:11;0.55;;;0.50;;
41289;SDS011;36117;46.680;11.154;2022-11-21T10:50:17;1.92;;;1.05;;
41289;SDS011;36117;46.680;11.154;2022-11-21T10:53:09;2.03;;;1.08;;
41289;SDS011;36117;46.680;11.154;2022-11-21T10:55:57;1.52;;;0.68;;
41289;SDS011;36117;46.680;11.154;2022-11-21T10:58:40;0.80;;;0.65;;
41289;SDS011;36117;46.680;11.154;2022-11-21T11:01:19;1.25;;;0.90;;
41289;SDS011;36117;46.680;11.154;2022-11-21T11:06:40;2.03;;;1.02;;
41289;SDS011;36117;46.680;11.154;2022-11-21T11:09:21;3.15;;;0.75;;
41289;SDS011;36117;46.680;11.154;2022-11-21T11:11:52;0.63;;;0.50;;
41289;SDS011;36117;46.680;11.154;2022-11-21T11:14:38;1.02;;;0.80;;
41289;SDS011;36117;46.680;11.154;2022-11-21T11:17:03;0.52;;;0.45;;
41289;SDS011;36117;46.680;11.154;2022-11-21T11:19:29;1.95;;;0.95;;
41289;SDS011;36117;46.680;11.154;2022-11-21T11:21:54;3.42;;;1.58;;
41289;SDS011;36117;46.680;11.154;2022-11-21T11:24:22;1.08;;;0.73;;
41289;SDS011;36117;46.680;11.154;2022-11-21T11:26:59;1.02;;;0.68;;
41289;SDS011;36117;46.680;11.154;2022-11-21T11:29:27;0.77;;;0.77;;
41289;SDS011;36117;46.680;11.154;2022-11-21T11:37:10;1.98;;;1.02;;
41289;SDS011;36117;46.680;11.154;2022-11-21T11:40:00;1.23;;;0.65;;
41289;SDS011;36117;46.680;11.154;2022-11-21T11:42:42;0.73;;;0.70;;
41289;SDS011;36117;46.680;11.154;2022-11-21T11:48:26;1.13;;;0.70;;
41289;SDS011;36117;46.680;11.154;2022-11-21T11:50:59;3.05;;;1.42;;
41289;SDS011;36117;46.680;11.154;2022-11-21T11:53:30;0.32;;;0.32;;
41289;SDS011;36117;46.680;11.154;2022-11-21T11:58:45;0.82;;;0.60;;
41289;SDS011;36117;46.680;11.154;2022-11-21T12:04:20;0.57;;;0.50;;
41289;SDS011;36117;46.680;11.154;2022-11-21T12:06:52;0.77;;;0.60;;
41289;SDS011;36117;46.680;11.154;2022-11-21T12:12:01;2.20;;;0.95;;
41289;SDS011;36117;46.680;11.154;2022-11-21T12:17:50;0.90;;;0.45;;
41289;SDS011;36117;46.680;11.154;2022-11-21T12:20:35;1.13;;;0.63;;
41289;SDS011;36117;46.680;11.154;2022-11-21T12:23:21;0.65;;;0.60;;
41289;SDS011;36117;46.680;11.154;2022-11-21T12:26:03;10.65;;;1.17;;
41289;SDS011;36117;46.680;11.154;2022-11-21T12:42:21;0.80;;;0.55;;
41289;SDS011;36117;46.680;11.154;2022-11-21T12:50:51;1.65;;;0.75;;
41289;SDS011;36117;46.680;11.154;2022-11-21T12:59:36;0.40;;;0.40;;
41289;SDS011;36117;46.680;11.154;2022-11-21T13:02:23;1.27;;;0.98;;
41289;SDS011;36117;46.680;11.154;2022-11-21T13:05:03;0.25;;;0.25;;
41289;SDS011;36117;46.680;11.154;2022-11-21T13:07:34;0.80;;;0.50;;
41289;SDS011;36117;46.680;11.154;2022-11-21T13:10:01;4.70;;;0.93;;
41289;SDS011;36117;46.680;11.154;2022-11-21T13:12:32;0.80;;;0.80;;
41289;SDS011;36117;46.680;11.154;2022-11-21T13:15:18;1.88;;;1.25;;
41289;SDS011;36117;46.680;11.154;2022-11-21T13:17:56;1.88;;;1.30;;
41289;SDS011;36117;46.680;11.154;2022-11-21T13:20:29;0.50;;;0.50;;
41289;SDS011;36117;46.680;11.154;2022-11-21T13:23:02;2.05;;;0.95;;
41289;SDS011;36117;46.680;11.154;2022-11-21T13:30:53;1.60;;;1.00;;
41289;SDS011;36117;46.680;11.154;2022-11-21T13:47:04;3.45;;;1.70;;
41289;SDS011;36117;46.680;11.154;2022-11-21T13:49:51;1.38;;;0.88;;
41289;SDS011;36117;46.680;11.154;2022-11-21T14:11:58;2.13;;;1.40;;
41289;SDS011;36117;46.680;11.154;2022-11-21T14:20:07;2.10;;;1.55;;
41289;SDS011;36117;46.680;11.154;2022-11-21T14:25:07;1.85;;;1.10;;
41289;SDS011;36117;46.680;11.154;2022-11-21T14:30:05;1.10;;;1.00;;
41289;SDS011;36117;46.680;11.154;2022-11-21T14:32:49;1.63;;;1.48;;
41289;SDS011;36117;46.680;11.154;2022-11-21T14:35:20;2.47;;;1.25;;
41289;SDS011;36117;46.680;11.154;2022-11-21T14:37:47;7.07;;;2.17;;
41289;SDS011;36117;46.680;11.154;2022-11-21T14:40:22;2.78;;;1.52;;
41289;SDS011;36117;46.680;11.154;2022-11-21T14:42:49;8.60;;;2.17;;
41289;SDS011;36117;46.680;11.154;2022-11-21T14:45:19;2.97;;;1.85;;
41289;SDS011;36117;46.680;11.154;2022-11-21T14:47:49;4.40;;;2.17;;
41289;SDS011;36117;46.680;11.154;2022-11-21T14:50:23;3.25;;;2.08;;
41289;SDS011;36117;46.680;11.154;2022-11-21T14:52:53;5.30;;;1.85;;
41289;SDS011;36117;46.680;11.154;2022-11-21T14:55:24;24.13;;;2.42;;
41289;SDS011;36117;46.680;11.154;2022-11-21T14:57:52;5.85;;;2.67;;
41289;SDS011;36117;46.680;11.154;2022-11-21T15:00:20;4.80;;;2.83;;
41289;SDS011;36117;46.680;11.154;2022-11-21T15:02:49;5.78;;;2.45;;
41289;SDS011;36117;46.680;11.154;2022-11-21T15:05:28;6.00;;;2.92;;
41289;SDS011;36117;46.680;11.154;2022-11-21T15:07:57;4.80;;;2.17;;
41289;SDS011;36117;46.680;11.154;2022-11-21T15:10:27;1.38;;;1.27;;
41289;SDS011;36117;46.680;11.154;2022-11-21T15:13:02;2.33;;;1.35;;
41289;SDS011;36117;46.680;11.154;2022-11-21T15:15:40;4.30;;;1.58;;
41289;SDS011;36117;46.680;11.154;2022-11-21T15:18:25;3.45;;;2.05;;
41289;SDS011;36117;46.680;11.154;2022-11-21T15:20:54;4.72;;;1.30;;
41289;SDS011;36117;46.680;11.154;2022-11-21T15:23:30;3.17;;;1.52;;
41289;SDS011;36117;46.680;11.154;2022-11-21T15:25:57;1.58;;;1.50;;
41289;SDS011;36117;46.680;11.154;2022-11-21T15:28:23;8.32;;;2.15;;
41289;SDS011;36117;46.680;11.154;2022-11-21T15:31:13;4.97;;;1.58;;
41289;SDS011;36117;46.680;11.154;2022-11-21T15:33:56;6.18;;;2.80;;
41289;SDS011;36117;46.680;11.154;2022-11-21T15:36:26;8.68;;;2.00;;
41289;SDS011;36117;46.680;11.154;2022-11-21T15:46:26;3.42;;;2.63;;
41289;SDS011;36117;46.680;11.154;2022-11-21T15:51:32;8.63;;;3.10;;
41289;SDS011;36117;46.680;11.154;2022-11-21T15:53:59;5.57;;;2.17;;
41289;SDS011;36117;46.680;11.154;2022-11-21T15:56:25;6.80;;;1.52;;
41289;SDS011;36117;46.680;11.154;2022-11-21T15:58:51;1.98;;;1.30;;
41289;SDS011;36117;46.680;11.154;2022-11-21T16:01:18;2.22;;;1.80;;
41289;SDS011;36117;46.680;11.154;2022-11-21T16:03:49;10.75;;;3.05;;
41289;SDS011;36117;46.680;11.154;2022-11-21T16:06:16;5.07;;;1.88;;
41289;SDS011;36117;46.680;11.154;2022-11-21T16:08:43;3.33;;;2.03;;
41289;SDS011;36117;46.680;11.154;2022-11-21T16:11:24;1.10;;;0.85;;
41289;SDS011;36117;46.680;11.154;2022-11-21T16:14:01;2.72;;;1.92;;
41289;SDS011;36117;46.680;11.154;2022-11-21T16:16:31;4.10;;;2.55;;
41289;SDS011;36117;46.680;11.154;2022-11-21T16:18:58;21.02;;;3.15;;
41289;SDS011;36117;46.680;11.154;2022-11-21T16:21:24;5.15;;;1.85;;
41289;SDS011;36117;46.680;11.154;2022-11-21T16:23:51;5.32;;;2.90;;
41289;SDS011;36117;46.680;11.154;2022-11-21T16:26:17;6.22;;;2.45;;
41289;SDS011;36117;46.680;11.154;2022-11-21T16:28:44;10.15;;;2.58;;
41289;SDS011;36117;46.680;11.154;2022-11-21T16:31:17;2.55;;;1.52;;
41289;SDS011;36117;46.680;11.154;2022-11-21T16:33:44;5.55;;;2.35;;
41289;SDS011;36117;46.680;11.154;2022-11-21T16:36:09;4.20;;;2.42;;
41289;SDS011;36117;46.680;11.154;2022-11-21T16:38:35;13.10;;;3.03;;
41289;SDS011;36117;46.680;11.154;2022-11-21T16:41:01;2.65;;;2.00;;
41289;SDS011;36117;46.680;11.154;2022-11-21T16:43:30;3.08;;;2.42;;
41289;SDS011;36117;46.680;11.154;2022-11-21T16:46:06;2.60;;;1.67;;
41289;SDS011;36117;46.680;11.154;2022-11-21T16:48:32;15.15;;;3.30;;
41289;SDS011;36117;46.680;11.154;2022-11-21T16:51:07;4.28;;;2.60;;
41289;SDS011;36117;46.680;11.154;2022-11-21T16:53:38;4.50;;;2.08;;
41289;SDS011;36117;46.680;11.154;2022-11-21T16:56:04;5.38;;;3.22;;
41289;SDS011;36117;46.680;11.154;2022-11-21T16:58:30;3.92;;;1.98;;
41289;SDS011;36117;46.680;11.154;2022-11-21T17:00:56;5.40;;;1.80;;
41289;SDS011;36117;46.680;11.154;2022-11-21T17:03:21;4.47;;;2.55;;
41289;SDS011;36117;46.680;11.154;2022-11-21T17:05:56;2.28;;;1.80;;
41289;SDS011;36117;46.680;11.154;2022-11-21T17:08:23;14.48;;;2.42;;